Time;durP1;ratioP1;P1;durP2;ratioP2;P2;SDS_P1;SDS_P2;PMS_P1;PMS_P2;Temp;Humidity;BMP_temperature;BMP_pressure;BME280_temperature;BME280_humidity;BME280_pressure;Samples;Min_cycle;Max_cycle;Signal;HPM_P1;HPM_P2
2021/01/30 00:02:09;;;;;;;3.58;0.75;;;8.90;99.90;;;;;;5033136;28;20045;-61
2021/01/30 00:04:55;;;;;;;2.55;0.63;;;9.00;99.90;;;;;;5033478;28;20487;-60
2021/01/30 00:07:41;;;;;;;4.38;0.90;;;8.90;99.90;;;;;;5032235;28;20486;-60
2021/01/30 00:10:28;;;;;;;1.95;0.68;;;8.90;99.90;;;;;;5025266;28;20029;-60
2021/01/30 00:13:15;;;;;;;0.98;0.57;;;9.00;99.90;;;;;;5033157;28;20387;-60
2021/01/30 00:16:01;;;;;;;1.60;0.57;;;8.90;99.90;;;;;;5032188;28;20057;-59
2021/01/30 00:18:47;;;;;;;2.85;0.70;;;8.90;99.90;;;;;;5032079;28;20449;-59
2021/01/30 00:21:33;;;;;;;3.08;1.17;;;8.90;99.90;;;;;;5024884;28;20045;-60
2021/01/30 00:24:21;;;;;;;0.95;0.50;;;8.90;99.90;;;;;;5032853;28;20491;-60
2021/01/30 00:27:07;;;;;;;1.63;0.50;;;8.90;99.90;;;;;;5032400;28;20037;-60
2021/01/30 00:29:53;;;;;;;0.95;0.50;;;8.80;99.90;;;;;;5032970;28;20040;-59
2021/01/30 00:32:39;;;;;;;1.35;0.40;;;8.80;99.90;;;;;;5017187;28;20037;-60
2021/01/30 00:35:27;;;;;;;3.58;0.90;;;8.90;99.90;;;;;;5031099;28;20613;-60
2021/01/30 00:38:13;;;;;;;3.75;0.88;;;8.80;99.90;;;;;;5016887;28;20501;-60
2021/01/30 00:40:59;;;;;;;1.60;0.65;;;8.80;99.90;;;;;;5031510;28;20045;-60
2021/01/30 00:43:45;;;;;;;4.57;1.08;;;8.80;99.90;;;;;;5026874;28;20073;-60
2021/01/30 00:46:31;;;;;;;2.67;0.60;;;8.80;99.90;;;;;;5031047;28;20533;-60
2021/01/30 00:49:18;;;;;;;2.75;0.50;;;8.70;99.90;;;;;;5019000;28;20033;-61
2021/01/30 00:52:04;;;;;;;2.92;0.65;;;8.70;99.90;;;;;;5032702;28;20034;-61
2021/01/30 00:54:52;;;;;;;2.97;0.70;;;8.80;99.90;;;;;;5032096;28;20044;-61
2021/01/30 00:57:38;;;;;;;2.08;0.75;;;8.80;99.90;;;;;;5019546;28;20033;-61
2021/01/30 01:00:27;;;;;;;8.13;0.90;;;8.80;99.90;;;;;;5031934;28;20178;-61
2021/01/30 01:03:13;;;;;;;1.85;0.73;;;8.80;99.90;;;;;;5016407;28;20124;-61
2021/01/30 01:05:59;;;;;;;3.00;0.70;;;8.70;99.90;;;;;;5017729;28;20044;-61
2021/01/30 01:08:45;;;;;;;5.60;1.08;;;8.70;99.90;;;;;;5032562;28;20475;-61
2021/01/30 01:11:37;;;;;;;2.30;0.70;;;8.70;99.90;;;;;;5024489;28;20143;-61
2021/01/30 01:14:26;;;;;;;2.25;0.52;;;8.80;99.90;;;;;;5032346;28;20034;-61
2021/01/30 01:17:12;;;;;;;3.47;1.00;;;8.80;99.90;;;;;;5031645;28;20077;-61
2021/01/30 01:19:58;;;;;;;3.63;1.23;;;8.80;99.90;;;;;;5032496;28;20095;-61
2021/01/30 01:22:44;;;;;;;3.38;0.90;;;8.80;99.90;;;;;;5031905;28;20045;-61
2021/01/30 01:25:30;;;;;;;7.63;1.73;;;8.80;99.90;;;;;;5032236;28;20044;-61
2021/01/30 01:28:17;;;;;;;4.60;0.85;;;8.60;99.90;;;;;;5032344;28;20065;-61
2021/01/30 01:31:04;;;;;;;7.03;0.80;;;8.70;99.90;;;;;;5032291;28;20052;-61
2021/01/30 01:33:50;;;;;;;3.13;0.80;;;8.70;99.90;;;;;;5031689;28;20124;-62
2021/01/30 01:36:36;;;;;;;1.77;0.70;;;8.70;99.90;;;;;;5017556;28;20034;-60
2021/01/30 01:39:23;;;;;;;7.22;0.85;;;8.70;99.90;;;;;;5030968;28;20087;-60
2021/01/30 01:42:17;;;;;;;2.58;0.90;;;8.70;99.90;;;;;;5030977;28;20045;-60
2021/01/30 01:45:05;;;;;;;3.67;0.90;;;8.70;99.90;;;;;;5032363;28;20025;-60
2021/01/30 01:47:52;;;;;;;2.80;1.30;;;8.70;99.90;;;;;;5036084;28;20038;-61
2021/01/30 01:50:47;;;;;;;0.75;0.50;;;8.60;99.90;;;;;;5035929;28;20026;-60
2021/01/30 01:53:41;;;;;;;1.70;0.50;;;8.60;99.90;;;;;;5013737;28;20038;-61
2021/01/30 01:56:33;;;;;;;0.80;0.47;;;8.60;99.90;;;;;;5022597;28;20037;-61
2021/01/30 01:59:20;;;;;;;3.50;0.60;;;8.60;99.90;;;;;;5021092;28;20041;-60
2021/01/30 02:02:06;;;;;;;5.03;1.27;;;8.60;99.90;;;;;;5020418;28;20060;-60
2021/01/30 02:05:10;;;;;;;3.00;0.80;;;8.70;99.90;;;;;;5035498;28;20441;-60
2021/01/30 02:08:05;;;;;;;2.72;1.00;;;8.60;99.90;;;;;;5016678;28;20493;-60
2021/01/30 02:10:52;;;;;;;2.00;0.77;;;8.60;99.90;;;;;;5020352;28;20041;-60
2021/01/30 02:13:53;;;;;;;4.43;1.05;;;8.60;99.90;;;;;;5036159;28;20037;-60
2021/01/30 02:16:52;;;;;;;4.68;1.52;;;8.50;99.90;;;;;;5020525;28;20045;-60
2021/01/30 02:20:27;;;;;;;5.57;0.75;;;8.50;99.90;;;;;;5020450;28;20033;-59
2021/01/30 02:24:06;;;;;;;3.22;1.00;;;8.60;99.90;;;;;;5022791;28;20037;-60
2021/01/30 02:27:31;;;;;;;2.58;1.10;;;8.50;99.90;;;;;;5035193;28;20399;-60
2021/01/30 02:30:50;;;;;;;3.60;1.33;;;8.50;99.90;;;;;;5034492;28;20034;-60
2021/01/30 02:34:07;;;;;;;1.85;0.65;;;8.40;99.90;;;;;;5034596;28;20052;-60
2021/01/30 02:37:25;;;;;;;1.60;0.57;;;8.50;99.90;;;;;;5022421;28;20417;-60
2021/01/30 02:40:18;;;;;;;2.47;0.80;;;8.40;99.90;;;;;;5006289;28;20083;-60
2021/01/30 02:43:09;;;;;;;1.92;0.57;;;8.40;99.90;;;;;;5020046;28;20053;-60
2021/01/30 02:46:05;;;;;;;4.13;0.77;;;8.40;99.90;;;;;;5019985;28;20061;-60
2021/01/30 02:49:00;;;;;;;2.08;0.80;;;8.40;99.90;;;;;;5020180;28;20375;-60
2021/01/30 02:52:12;;;;;;;4.40;1.08;;;8.40;99.90;;;;;;5021338;28;20045;-60
2021/01/30 02:54:59;;;;;;;3.75;0.80;;;8.40;99.90;;;;;;5022876;28;20410;-60
2021/01/30 02:57:47;;;;;;;5.00;0.98;;;8.40;99.90;;;;;;5033715;28;20053;-60
2021/01/30 03:00:34;;;;;;;5.57;0.80;;;8.30;99.90;;;;;;5019819;28;20544;-60
2021/01/30 03:03:20;;;;;;;1.42;0.65;;;8.40;99.90;;;;;;5033131;28;20044;-60
2021/01/30 03:06:18;;;;;;;4.15;0.82;;;8.40;99.90;;;;;;5033910;28;20124;-60
2021/01/30 03:09:34;;;;;;;1.83;0.40;;;8.40;99.90;;;;;;5021167;28;20037;-60
2021/01/30 03:12:54;;;;;;;2.45;0.90;;;8.30;99.90;;;;;;5019520;28;20096;-60
2021/01/30 03:15:54;;;;;;;2.17;0.82;;;8.30;99.90;;;;;;5032600;28;20041;-60
2021/01/30 03:19:09;;;;;;;3.25;0.60;;;8.20;99.90;;;;;;5020688;28;20049;-60
2021/01/30 03:22:02;;;;;;;2.97;0.82;;;8.30;99.90;;;;;;5019425;28;20077;-60
2021/01/30 03:24:49;;;;;;;3.13;0.70;;;8.20;99.90;;;;;;5018477;28;20551;-60
2021/01/30 03:27:35;;;;;;;3.00;1.05;;;8.20;99.90;;;;;;5018610;28;20030;-60
2021/01/30 03:30:23;;;;;;;4.97;1.20;;;8.30;99.90;;;;;;5018760;28;20587;-60
2021/01/30 03:33:10;;;;;;;5.45;1.20;;;8.20;99.90;;;;;;5019430;28;20132;-59
2021/01/30 03:35:56;;;;;;;5.15;0.70;;;8.30;99.90;;;;;;5033873;28;20529;-61
2021/01/30 03:38:42;;;;;;;5.45;0.85;;;8.20;99.90;;;;;;5032254;28;20084;-61
2021/01/30 03:41:28;;;;;;;4.47;1.25;;;8.20;99.90;;;;;;5033774;28;20073;-60
2021/01/30 03:44:15;;;;;;;4.03;0.95;;;8.00;99.90;;;;;;5033981;28;20034;-60
2021/01/30 03:47:01;;;;;;;3.75;0.88;;;7.90;99.90;;;;;;5019044;28;20043;-61
2021/01/30 03:49:47;;;;;;;5.25;1.10;;;7.90;99.90;;;;;;5034021;28;20040;-60
2021/01/30 03:52:33;;;;;;;2.33;1.10;;;7.90;99.90;;;;;;5033380;28;20489;-60
2021/01/30 03:55:21;;;;;;;3.15;0.98;;;7.90;99.90;;;;;;5032116;28;20064;-61
2021/01/30 03:58:07;;;;;;;2.75;0.70;;;7.80;99.90;;;;;;5032244;28;20171;-60
2021/01/30 04:00:53;;;;;;;5.10;1.10;;;7.80;99.90;;;;;;5033401;28;20068;-61
2021/01/30 04:03:39;;;;;;;3.60;1.10;;;7.80;99.90;;;;;;5031757;28;20103;-61
2021/01/30 04:06:25;;;;;;;6.07;0.98;;;7.80;99.90;;;;;;5033272;28;20033;-60
2021/01/30 04:09:11;;;;;;;4.00;0.80;;;7.80;99.90;;;;;;5032201;28;20100;-61
2021/01/30 04:11:57;;;;;;;4.10;0.82;;;7.80;99.90;;;;;;5033500;28;20040;-60
2021/01/30 04:14:43;;;;;;;3.58;0.90;;;7.80;99.90;;;;;;5032999;28;20033;-61
2021/01/30 04:17:29;;;;;;;6.43;1.35;;;7.80;99.90;;;;;;5033040;28;20067;-61
2021/01/30 04:20:17;;;;;;;6.63;1.38;;;7.80;99.90;;;;;;5032039;28;20040;-61
2021/01/30 04:23:05;;;;;;;9.27;1.67;;;7.80;99.90;;;;;;5032897;28;20038;-61
2021/01/30 04:25:51;;;;;;;5.80;1.27;;;7.90;99.90;;;;;;5017836;28;20037;-61
2021/01/30 04:28:38;;;;;;;7.63;1.38;;;8.00;99.90;;;;;;5032790;28;20061;-61
2021/01/30 04:31:24;;;;;;;5.40;1.23;;;8.00;99.90;;;;;;5032906;28;20044;-61
2021/01/30 04:34:10;;;;;;;5.82;1.20;;;8.00;99.90;;;;;;5018236;28;20045;-61
2021/01/30 04:36:56;;;;;;;3.95;1.65;;;8.00;99.90;;;;;;5032859;28;20584;-61
2021/01/30 04:39:42;;;;;;;4.03;0.73;;;8.10;99.90;;;;;;5032623;28;20038;-61
2021/01/30 04:43:21;;;;;;;5.53;0.80;;;8.20;99.90;;;;;;5010274;28;20036;-60
2021/01/30 04:46:42;;;;;;;3.83;1.30;;;8.20;99.90;;;;;;5001545;28;20057;-60
2021/01/30 04:49:44;;;;;;;3.40;1.17;;;8.30;99.90;;;;;;5019228;28;20581;-61
2021/01/30 04:52:55;;;;;;;4.40;0.77;;;8.20;99.90;;;;;;5019201;28;20040;-60
2021/01/30 04:56:16;;;;;;;4.30;1.08;;;8.30;99.90;;;;;;5018012;28;20068;-61
2021/01/30 04:59:26;;;;;;;4.38;1.58;;;8.30;99.90;;;;;;5018814;28;20033;-60
2021/01/30 05:02:33;;;;;;;3.25;0.73;;;8.30;99.90;;;;;;5031904;28;20111;-61
2021/01/30 05:05:24;;;;;;;6.05;0.82;;;8.30;99.90;;;;;;5032912;28;20033;-60
2021/01/30 05:08:17;;;;;;;1.55;0.70;;;8.30;99.90;;;;;;5017951;28;20606;-61
2021/01/30 05:11:10;;;;;;;3.50;0.80;;;8.30;99.90;;;;;;5017276;28;20038;-60
2021/01/30 05:14:13;;;;;;;3.03;0.90;;;8.40;99.90;;;;;;5018297;28;20037;-60
2021/01/30 05:17:20;;;;;;;5.20;1.00;;;8.30;99.90;;;;;;5018561;28;20490;-60
2021/01/30 05:20:11;;;;;;;3.03;0.70;;;8.20;99.90;;;;;;5018314;28;20247;-61
2021/01/30 05:22:58;;;;;;;1.23;0.63;;;8.20;99.90;;;;;;5021683;28;20510;-60
2021/01/30 05:25:59;;;;;;;3.42;0.90;;;8.10;99.90;;;;;;5020494;28;20042;-60
2021/01/30 05:29:05;;;;;;;6.60;1.50;;;8.10;99.90;;;;;;5021945;28;20037;-60
2021/01/30 05:32:13;;;;;;;5.03;0.95;;;8.10;99.90;;;;;;5022308;28;20730;-60
2021/01/30 05:35:12;;;;;;;5.43;1.00;;;8.00;99.90;;;;;;5035593;28;20048;-60
2021/01/30 05:38:09;;;;;;;2.08;0.90;;;8.00;99.90;;;;;;5036339;28;20044;-60
2021/01/30 05:41:05;;;;;;;5.57;1.00;;;8.10;99.90;;;;;;5021984;28;20029;-60
2021/01/30 05:44:06;;;;;;;7.22;2.22;;;8.10;99.90;;;;;;5020587;28;20080;-60
2021/01/30 05:46:53;;;;;;;4.95;1.20;;;8.10;99.90;;;;;;5020492;28;20048;-60
2021/01/30 05:50:00;;;;;;;6.43;1.27;;;8.10;99.90;;;;;;5020677;28;20048;-61
2021/01/30 05:52:46;;;;;;;4.43;1.38;;;8.20;99.90;;;;;;5021948;28;20037;-61
2021/01/30 05:55:38;;;;;;;5.60;1.83;;;8.20;99.90;;;;;;5040646;28;20044;-61
2021/01/30 05:58:27;;;;;;;7.50;1.40;;;8.30;99.90;;;;;;5025706;28;20130;-61
2021/01/30 06:01:16;;;;;;;8.38;1.23;;;8.20;99.90;;;;;;5035699;28;20537;-61
2021/01/30 06:04:11;;;;;;;5.93;1.38;;;8.30;99.90;;;;;;5052731;28;20039;-60
2021/01/30 06:06:57;;;;;;;8.18;2.20;;;8.30;99.90;;;;;;5054526;28;20048;-61
2021/01/30 06:09:45;;;;;;;7.35;2.22;;;8.30;99.90;;;;;;5040792;28;20033;-61
2021/01/30 06:12:36;;;;;;;7.25;1.45;;;8.40;99.90;;;;;;5053831;28;20033;-61
2021/01/30 06:15:22;;;;;;;7.82;1.70;;;8.40;99.90;;;;;;5054063;28;20037;-61
2021/01/30 06:18:35;;;;;;;12.25;2.25;;;8.40;99.90;;;;;;5040533;28;20041;-61
2021/01/30 06:21:22;;;;;;;10.30;2.45;;;8.40;99.90;;;;;;5054705;28;20032;-61
2021/01/30 06:24:32;;;;;;;14.38;2.47;;;8.40;99.90;;;;;;5054094;28;20048;-61
2021/01/30 06:27:26;;;;;;;6.93;1.58;;;8.40;99.90;;;;;;5055269;28;20036;-61
2021/01/30 06:30:46;;;;;;;9.20;2.42;;;8.40;99.90;;;;;;5053884;28;20041;-61
2021/01/30 06:33:36;;;;;;;9.00;2.00;;;8.40;99.90;;;;;;5033320;28;20072;-61
2021/01/30 06:36:27;;;;;;;15.20;2.03;;;8.40;99.90;;;;;;5053925;28;20040;-61
2021/01/30 06:39:20;;;;;;;15.27;2.53;;;8.40;99.90;;;;;;5054450;28;20489;-61
2021/01/30 06:42:36;;;;;;;9.10;1.90;;;8.40;99.90;;;;;;5007796;28;20037;-62
2021/01/30 06:45:40;;;;;;;16.00;1.80;;;8.30;99.90;;;;;;5017977;28;20060;-60
2021/01/30 06:48:31;;;;;;;14.00;2.10;;;8.40;99.90;;;;;;5033315;28;20038;-61
2021/01/30 06:51:36;;;;;;;8.68;1.75;;;8.30;99.90;;;;;;5034906;28;20665;-61
2021/01/30 06:54:28;;;;;;;12.20;2.20;;;8.30;99.90;;;;;;5033708;28;20129;-60
2021/01/30 06:57:26;;;;;;;10.55;1.65;;;8.20;99.90;;;;;;5034324;28;20486;-60
2021/01/30 07:00:16;;;;;;;13.00;2.53;;;8.30;99.90;;;;;;5032519;28;20121;-61
2021/01/30 07:03:48;;;;;;;14.68;1.98;;;8.30;99.90;;;;;;5032554;28;20045;-61
2021/01/30 07:07:17;;;;;;;13.00;2.17;;;8.40;99.90;;;;;;4980411;28;20039;-60
2021/01/30 07:10:38;;;;;;;13.23;1.98;;;8.40;99.90;;;;;;4980202;28;20038;-61
2021/01/30 07:13:49;;;;;;;7.17;1.70;;;8.40;99.90;;;;;;5034409;28;20482;-61
2021/01/30 07:17:00;;;;;;;12.70;2.03;;;8.30;99.90;;;;;;5035906;28;20032;-61
2021/01/30 07:19:54;;;;;;;16.13;3.85;;;8.40;99.90;;;;;;5030686;28;20132;-62
2021/01/30 07:22:53;;;;;;;16.70;1.90;;;8.30;99.90;;;;;;5032973;28;20501;-60
2021/01/30 07:26:14;;;;;;;7.03;1.30;;;8.30;99.90;;;;;;5033175;28;20042;-62
2021/01/30 07:29:13;;;;;;;10.60;2.00;;;8.30;99.90;;;;;;5032441;28;20041;-59
2021/01/30 07:32:14;;;;;;;13.82;2.92;;;8.40;99.90;;;;;;5008359;28;20502;-60
2021/01/30 07:35:25;;;;;;;19.37;2.77;;;8.40;99.90;;;;;;5032937;28;20069;-60
2021/01/30 07:38:21;;;;;;;12.75;2.67;;;8.30;99.90;;;;;;5018385;28;20045;-61
2021/01/30 07:41:54;;;;;;;10.80;1.85;;;8.30;99.90;;;;;;5032653;28;20041;-62
2021/01/30 07:45:16;;;;;;;13.60;1.75;;;8.40;99.90;;;;;;5024509;28;20049;-60
2021/01/30 07:48:50;;;;;;;13.30;2.95;;;8.40;99.90;;;;;;5031742;28;20041;-60
2021/01/30 07:52:02;;;;;;;8.82;2.88;;;8.40;99.90;;;;;;5028228;28;20125;-61
2021/01/30 07:54:54;;;;;;;6.97;1.55;;;8.50;99.90;;;;;;5030564;28;20036;-61
2021/01/30 07:58:07;;;;;;;12.40;1.98;;;8.50;99.90;;;;;;5032142;28;20041;-60
2021/01/30 08:01:03;;;;;;;13.48;2.70;;;8.60;99.90;;;;;;5008578;28;657977;-60
2021/01/30 08:04:30;;;;;;;13.07;2.25;;;8.60;99.90;;;;;;5014103;28;20049;-61
2021/01/30 08:07:45;;;;;;;19.35;2.80;;;8.70;99.90;;;;;;5033468;28;20033;-61
2021/01/30 08:11:05;;;;;;;13.60;2.55;;;8.70;99.90;;;;;;5030762;28;20468;-61
2021/01/30 08:15:02;;;;;;;14.15;1.75;;;8.70;99.90;;;;;;5052679;28;20041;-59
2021/01/30 08:18:23;;;;;;;15.07;4.50;;;8.70;99.90;;;;;;4991935;28;20056;-61
2021/01/30 08:21:33;;;;;;;14.33;2.53;;;8.80;99.90;;;;;;5033002;28;20041;-61
2021/01/30 08:24:29;;;;;;;13.55;2.22;;;8.90;99.90;;;;;;5033971;28;20112;-62
2021/01/30 08:27:25;;;;;;;10.55;2.10;;;8.90;99.90;;;;;;5012691;28;20034;-61
2021/01/30 08:30:20;;;;;;;8.43;2.00;;;8.90;99.90;;;;;;5008795;28;20120;-60
2021/01/30 08:33:07;;;;;;;9.73;2.15;;;8.90;99.90;;;;;;5032373;28;20146;-60
2021/01/30 08:35:57;;;;;;;12.43;2.20;;;9.00;99.90;;;;;;5030483;28;20044;-60
2021/01/30 08:39:15;;;;;;;14.57;2.53;;;8.90;99.90;;;;;;5028531;28;20425;-59
2021/01/30 08:42:20;;;;;;;16.42;2.40;;;9.00;99.90;;;;;;5032710;28;20049;-60
2021/01/30 08:45:10;;;;;;;15.27;1.90;;;9.00;99.90;;;;;;5023101;28;20034;-60
2021/01/30 08:48:20;;;;;;;16.15;1.85;;;9.10;99.90;;;;;;5017372;28;20071;-60
2021/01/30 08:51:18;;;;;;;12.52;2.20;;;9.20;99.90;;;;;;5032781;28;20506;-61
2021/01/30 08:54:34;;;;;;;15.95;2.50;;;9.20;99.90;;;;;;5017284;28;20052;-60
2021/01/30 08:57:33;;;;;;;21.52;3.08;;;9.40;99.90;;;;;;5031638;28;20041;-60
2021/01/30 09:00:28;;;;;;;9.05;1.85;;;9.40;99.90;;;;;;5030208;28;20394;-61
2021/01/30 09:03:47;;;;;;;7.28;1.42;;;9.20;99.90;;;;;;5031855;28;20422;-61
2021/01/30 09:06:39;;;;;;;9.98;2.22;;;9.30;99.90;;;;;;5025454;28;20544;-60
2021/01/30 09:09:27;;;;;;;17.15;2.47;;;9.40;99.90;;;;;;5031508;28;20152;-60
2021/01/30 09:12:55;;;;;;;9.05;1.90;;;9.50;99.90;;;;;;5017847;28;20026;-60
2021/01/30 09:15:41;;;;;;;11.45;2.38;;;9.60;99.90;;;;;;5031970;28;20041;-63
2021/01/30 09:18:36;;;;;;;14.18;2.67;;;9.30;99.90;;;;;;5032286;28;20081;-60
2021/01/30 09:21:49;;;;;;;7.95;1.67;;;9.50;99.90;;;;;;5032258;28;20396;-61
2021/01/30 09:24:53;;;;;;;8.88;2.08;;;9.50;99.90;;;;;;5018609;28;20063;-60
2021/01/30 09:27:50;;;;;;;12.57;2.60;;;9.50;99.90;;;;;;5025566;28;20044;-61
2021/01/30 09:30:58;;;;;;;18.83;2.00;;;9.50;99.90;;;;;;5030991;28;20545;-60
2021/01/30 09:34:05;;;;;;;13.40;3.08;;;9.50;99.90;;;;;;5010221;28;20510;-62
2021/01/30 09:36:53;;;;;;;19.08;4.18;;;9.60;99.90;;;;;;5028954;28;20076;-58
2021/01/30 09:39:40;;;;;;;14.05;2.20;;;9.50;99.90;;;;;;5031419;28;20037;-60
2021/01/30 09:42:28;;;;;;;9.63;1.98;;;9.60;99.90;;;;;;5033301;28;20038;-60
2021/01/30 09:45:15;;;;;;;8.95;2.13;;;9.60;99.90;;;;;;5031573;28;20039;-60
2021/01/30 09:48:12;;;;;;;13.38;3.00;;;9.60;99.90;;;;;;5030525;28;20026;-60
2021/01/30 09:51:00;;;;;;;14.70;2.30;;;9.70;99.90;;;;;;5031942;28;20088;-60
2021/01/30 09:53:56;;;;;;;15.10;3.08;;;9.70;99.90;;;;;;5026600;28;20026;-59
2021/01/30 09:56:43;;;;;;;15.90;3.80;;;9.70;99.90;;;;;;5029804;28;20048;-61
2021/01/30 09:59:30;;;;;;;16.65;3.33;;;9.60;99.90;;;;;;5031060;28;20045;-59
2021/01/30 10:02:19;;;;;;;8.05;2.83;;;9.80;99.90;;;;;;5023702;28;20049;-60
2021/01/30 10:05:14;;;;;;;18.20;2.58;;;9.90;99.90;;;;;;5029672;28;20090;-61
2021/01/30 10:08:30;;;;;;;17.35;3.20;;;9.90;99.90;;;;;;5034510;28;20033;-60
2021/01/30 10:11:22;;;;;;;13.73;2.17;;;10.00;99.90;;;;;;5034366;28;20033;-60
2021/01/30 10:14:09;;;;;;;8.98;2.63;;;10.00;99.90;;;;;;5034921;28;20569;-59
2021/01/30 10:17:00;;;;;;;16.27;3.13;;;9.80;99.90;;;;;;5032510;28;20043;-60
2021/01/30 10:19:55;;;;;;;15.73;3.00;;;9.80;99.90;;;;;;5033013;28;20033;-59
2021/01/30 10:22:48;;;;;;;18.95;3.13;;;9.70;99.90;;;;;;5033710;28;20049;-60
2021/01/30 10:25:34;;;;;;;18.83;2.95;;;10.00;99.90;;;;;;5033976;28;20120;-59
2021/01/30 10:28:20;;;;;;;11.20;2.10;;;10.20;99.90;;;;;;5035234;28;20048;-60
2021/01/30 10:31:07;;;;;;;18.10;2.83;;;10.60;99.90;;;;;;5032946;28;20449;-59
2021/01/30 10:34:29;;;;;;;20.23;2.97;;;10.90;99.90;;;;;;5019241;28;20045;-59
2021/01/30 10:37:23;;;;;;;10.32;2.40;;;11.00;99.90;;;;;;4997571;28;20132;-59
2021/01/30 10:40:38;;;;;;;15.75;2.95;;;11.10;99.90;;;;;;5033680;28;20132;-59
2021/01/30 10:43:37;;;;;;;13.00;2.15;;;11.10;99.90;;;;;;5033078;28;20084;-62
2021/01/30 10:46:40;;;;;;;10.07;1.98;;;10.80;99.90;;;;;;5008510;28;20564;-60
2021/01/30 10:49:36;;;;;;;17.23;2.90;;;10.60;99.90;;;;;;5024959;28;20037;-61
2021/01/30 10:52:25;;;;;;;16.95;2.58;;;10.50;99.90;;;;;;5020790;28;20029;-60
2021/01/30 10:55:35;;;;;;;11.60;2.75;;;10.50;99.90;;;;;;5032948;28;20025;-61
2021/01/30 10:58:24;;;;;;;13.73;2.70;;;10.40;99.90;;;;;;5039127;28;20417;-60
2021/01/30 11:01:19;;;;;;;16.45;2.50;;;10.20;99.90;;;;;;5049251;28;20057;-60
2021/01/30 11:04:05;;;;;;;11.10;2.20;;;10.10;99.90;;;;;;5033888;28;20037;-61
2021/01/30 11:07:00;;;;;;;14.18;2.35;;;10.10;99.90;;;;;;5033988;28;20075;-61
2021/01/30 11:09:53;;;;;;;12.02;2.22;;;10.00;99.90;;;;;;5019706;28;20033;-60
2021/01/30 11:12:39;;;;;;;17.30;2.97;;;9.90;99.90;;;;;;5018373;28;20052;-61
2021/01/30 11:15:25;;;;;;;15.02;2.80;;;10.00;99.90;;;;;;5019206;28;20033;-60
2021/01/30 11:18:37;;;;;;;12.30;4.05;;;10.00;99.90;;;;;;5018693;28;20040;-62
2021/01/30 11:21:38;;;;;;;12.07;2.53;;;10.00;99.90;;;;;;5000820;28;20479;-61
2021/01/30 11:24:34;;;;;;;19.23;2.97;;;9.90;99.90;;;;;;5012581;28;20125;-63
2021/01/30 11:27:37;;;;;;;11.68;2.78;;;9.80;99.90;;;;;;5030450;28;20041;-62
2021/01/30 11:30:28;;;;;;;14.82;2.30;;;9.80;99.90;;;;;;5034170;28;20033;-62
2021/01/30 11:33:15;;;;;;;10.05;2.08;;;9.80;99.90;;;;;;5011542;28;20467;-60
2021/01/30 11:36:06;;;;;;;21.85;2.60;;;9.80;99.90;;;;;;5012593;28;20046;-61
2021/01/30 11:39:03;;;;;;;9.63;2.30;;;9.80;99.90;;;;;;5014088;28;20503;-61
2021/01/30 11:41:49;;;;;;;8.98;2.15;;;9.80;99.90;;;;;;5014878;28;20065;-58
2021/01/30 11:44:35;;;;;;;15.85;3.83;;;9.90;99.90;;;;;;5030416;28;20067;-60
2021/01/30 11:47:21;;;;;;;9.07;2.05;;;9.80;99.90;;;;;;5035110;28;20035;-60
2021/01/30 11:50:09;;;;;;;14.02;2.05;;;9.80;99.90;;;;;;5032206;28;20120;-61
2021/01/30 11:53:17;;;;;;;9.25;3.15;;;9.70;99.90;;;;;;5008122;28;20022;-60
2021/01/30 11:56:03;;;;;;;18.65;3.35;;;9.70;99.90;;;;;;4999366;28;20053;-59
2021/01/30 11:58:50;;;;;;;17.13;3.40;;;9.60;99.90;;;;;;5034832;28;20033;-61
2021/01/30 12:01:36;;;;;;;13.77;3.25;;;9.60;99.90;;;;;;5044113;28;20041;-60
2021/01/30 12:04:22;;;;;;;7.60;2.30;;;9.50;99.90;;;;;;5033582;28;20107;-61
2021/01/30 12:07:08;;;;;;;6.47;2.67;;;9.10;99.90;;;;;;5032880;28;20026;-61
2021/01/30 12:09:54;;;;;;;8.20;2.65;;;8.90;99.90;;;;;;5033255;28;20149;-61
2021/01/30 12:12:40;;;;;;;11.75;3.33;;;8.80;99.90;;;;;;5033431;28;20120;-63
2021/01/30 12:15:26;;;;;;;8.63;2.13;;;8.60;99.90;;;;;;5032148;28;20040;-61
2021/01/30 12:18:16;;;;;;;6.68;2.08;;;8.50;99.90;;;;;;5033009;28;20382;-62
2021/01/30 12:21:02;;;;;;;7.75;2.25;;;8.30;99.90;;;;;;5031949;28;20058;-61
2021/01/30 12:23:48;;;;;;;3.60;1.77;;;8.30;99.90;;;;;;5018241;28;20046;-62
2021/01/30 12:26:34;;;;;;;7.10;1.80;;;8.00;99.90;;;;;;5033289;28;20037;-61
2021/01/30 12:33:22;;;;;;;6.55;2.03;;;7.90;99.90;;;;;;5013233;28;20042;-63
2021/01/30 12:36:10;;;;;;;7.65;2.05;;;7.80;99.90;;;;;;4996706;28;20052;-61
2021/01/30 12:38:56;;;;;;;7.18;1.70;;;7.80;99.90;;;;;;5012600;28;20034;-61
2021/01/30 12:41:42;;;;;;;6.03;1.73;;;7.70;99.90;;;;;;5011667;28;20088;-60
2021/01/30 12:44:28;;;;;;;7.22;2.00;;;7.80;99.90;;;;;;5014374;28;20042;-61
2021/01/30 12:47:29;;;;;;;6.18;2.22;;;7.90;99.90;;;;;;5014297;28;20032;-61
2021/01/30 12:50:19;;;;;;;3.55;1.70;;;7.90;99.90;;;;;;5012797;28;20125;-62
2021/01/30 12:53:08;;;;;;;9.73;3.40;;;7.90;99.90;;;;;;5012995;28;20076;-61
2021/01/30 12:55:54;;;;;;;3.03;1.50;;;7.90;99.90;;;;;;4998019;28;20084;-61
2021/01/30 12:58:40;;;;;;;4.07;1.80;;;7.90;99.90;;;;;;5012572;28;20092;-60
2021/01/30 13:01:27;;;;;;;7.07;1.80;;;7.90;99.90;;;;;;5022911;28;20041;-61
2021/01/30 13:04:13;;;;;;;8.63;2.00;;;7.80;99.90;;;;;;5050518;28;20045;-60
2021/01/30 13:07:00;;;;;;;4.35;1.45;;;7.70;99.90;;;;;;5051082;28;20029;-60
2021/01/30 13:09:46;;;;;;;4.40;1.35;;;7.80;99.90;;;;;;5036950;28;20064;-61
2021/01/30 13:12:32;;;;;;;5.57;2.42;;;7.90;99.90;;;;;;5049826;28;20497;-62
2021/01/30 13:15:18;;;;;;;2.72;1.42;;;7.80;99.90;;;;;;5050996;28;20072;-60
2021/01/30 13:18:06;;;;;;;2.40;1.38;;;7.80;99.90;;;;;;5036618;28;20041;-60
2021/01/30 13:20:52;;;;;;;4.47;1.65;;;7.70;99.90;;;;;;5036923;28;20451;-60
2021/01/30 13:23:38;;;;;;;6.43;1.88;;;7.50;99.90;;;;;;5051474;28;20045;-59
2021/01/30 13:26:25;;;;;;;10.45;2.03;;;7.40;99.90;;;;;;5036317;28;20060;-59
2021/01/30 13:29:14;;;;;;;2.22;1.48;;;7.50;99.90;;;;;;5039116;28;20041;-64
2021/01/30 13:32:02;;;;;;;3.63;1.70;;;7.50;99.90;;;;;;5038054;28;20037;-60
2021/01/30 13:34:48;;;;;;;3.33;1.80;;;7.10;99.90;;;;;;5050503;28;20087;-61
2021/01/30 13:37:34;;;;;;;5.43;1.60;;;7.20;99.90;;;;;;5036112;28;20033;-60
2021/01/30 13:40:21;;;;;;;5.70;1.90;;;7.30;99.90;;;;;;5050357;28;20398;-61
2021/01/30 13:43:09;;;;;;;4.50;1.58;;;7.30;99.90;;;;;;5054933;28;20626;-60
2021/01/30 13:45:55;;;;;;;4.20;2.13;;;7.30;99.90;;;;;;5055237;28;20041;-60
2021/01/30 13:48:42;;;;;;;9.00;3.17;;;7.60;99.90;;;;;;5055341;28;20040;-61
2021/01/30 13:51:28;;;;;;;4.47;1.83;;;7.50;99.90;;;;;;5054184;28;20485;-61
2021/01/30 13:54:16;;;;;;;3.75;1.73;;;7.50;99.90;;;;;;5054567;28;20091;-60
2021/01/30 13:57:03;;;;;;;4.38;1.80;;;7.40;99.90;;;;;;5040675;28;20107;-60
2021/01/30 13:59:49;;;;;;;4.03;1.70;;;7.10;99.90;;;;;;5053348;28;20497;-60
2021/01/30 14:02:37;;;;;;;4.13;1.90;;;7.00;99.90;;;;;;5031884;28;20490;-62
2021/01/30 14:05:26;;;;;;;3.78;1.80;;;7.00;99.90;;;;;;5034228;28;20037;-63
2021/01/30 14:08:12;;;;;;;4.25;2.10;;;7.10;99.90;;;;;;5020469;28;20111;-63
2021/01/30 14:10:58;;;;;;;5.00;2.38;;;7.20;99.90;;;;;;5034984;28;20619;-62
2021/01/30 14:13:44;;;;;;;18.85;8.35;;;7.10;99.90;;;;;;5033840;28;20049;-62
2021/01/30 14:16:30;;;;;;;7.97;4.13;;;6.90;99.90;;;;;;5036090;28;20176;-62
2021/01/30 14:19:16;;;;;;;7.15;2.63;;;7.00;99.90;;;;;;5034542;28;20390;-63
2021/01/30 14:22:02;;;;;;;3.88;1.98;;;6.90;99.90;;;;;;5018675;28;20042;-62
2021/01/30 14:24:48;;;;;;;5.38;2.60;;;6.90;99.90;;;;;;5034897;28;20086;-63
2021/01/30 14:27:35;;;;;;;4.13;2.50;;;6.90;99.90;;;;;;5034474;28;20403;-63
2021/01/30 14:30:22;;;;;;;3.70;2.35;;;6.80;99.90;;;;;;5027479;28;20049;-62
2021/01/30 14:33:08;;;;;;;4.88;2.88;;;6.90;99.90;;;;;;5026629;28;20052;-63
2021/01/30 14:35:55;;;;;;;4.80;2.40;;;6.90;99.90;;;;;;5049209;28;20056;-63
2021/01/30 14:38:41;;;;;;;6.57;2.92;;;6.80;99.90;;;;;;5040716;28;20044;-62
2021/01/30 14:41:27;;;;;;;4.78;2.10;;;6.70;99.90;;;;;;5019303;28;20236;-61
2021/01/30 14:44:14;;;;;;;5.50;2.60;;;6.70;99.90;;;;;;5033649;28;20040;-62
2021/01/30 14:47:00;;;;;;;4.38;2.65;;;6.80;99.90;;;;;;5048014;28;20072;-62
2021/01/30 14:49:46;;;;;;;6.07;3.42;;;6.80;99.90;;;;;;5028127;28;20033;-63
2021/01/30 14:52:32;;;;;;;5.30;2.70;;;6.80;99.90;;;;;;5035468;28;20112;-63
2021/01/30 14:55:18;;;;;;;5.47;3.00;;;6.70;99.90;;;;;;5039005;28;20542;-62
2021/01/30 14:58:04;;;;;;;6.10;3.08;;;6.80;99.90;;;;;;5032540;28;20112;-62
2021/01/30 15:00:50;;;;;;;6.57;3.40;;;6.80;99.90;;;;;;5015073;28;20042;-61
2021/01/30 15:03:40;;;;;;;11.38;4.20;;;6.70;99.90;;;;;;5036378;28;20559;-64
2021/01/30 15:06:26;;;;;;;6.57;2.95;;;6.70;99.90;;;;;;5030063;28;20042;-62
2021/01/30 15:09:15;;;;;;;5.80;2.88;;;6.60;99.90;;;;;;5026290;28;20042;-63
2021/01/30 15:12:01;;;;;;;5.30;2.90;;;6.60;99.90;;;;;;5014646;28;20038;-63
2021/01/30 15:14:47;;;;;;;5.72;2.90;;;6.60;99.90;;;;;;5000769;28;20050;-63
2021/01/30 15:17:33;;;;;;;7.63;3.70;;;6.60;99.90;;;;;;5052402;28;20128;-63
2021/01/30 15:20:21;;;;;;;9.85;5.38;;;6.50;99.90;;;;;;5052339;28;20067;-63